sensor_id;sensor_type;location;lat;lon;timestamp;temperature;humidity
28715;DHT22;15886;49.170;14.572;2023-04-01T00:02:19;9.30;99.90
28715;DHT22;15886;49.170;14.572;2023-04-01T00:04:47;9.30;99.90
28715;DHT22;15886;49.170;14.572;2023-04-01T00:07:17;9.30;99.90
28715;DHT22;15886;49.170;14.572;2023-04-01T00:09:45;9.30;99.90
28715;DHT22;15886;49.170;14.572;2023-04-01T00:12:13;9.30;99.90
28715;DHT22;15886;49.170;14.572;2023-04-01T00:14:41;9.30;99.90
28715;DHT22;15886;49.170;14.572;2023-04-01T00:17:09;9.30;99.90
28715;DHT22;15886;49.170;14.572;2023-04-01T00:19:38;9.30;99.90
28715;DHT22;15886;49.170;14.572;2023-04-01T00:22:06;9.30;99.90
28715;DHT22;15886;49.170;14.572;2023-04-01T00:24:37;9.40;99.90
28715;DHT22;15886;49.170;14.572;2023-04-01T00:27:05;9.40;99.90
28715;DHT22;15886;49.170;14.572;2023-04-01T00:29:36;9.40;99.90
28715;DHT22;15886;49.170;14.572;2023-04-01T00:32:04;9.40;99.90
28715;DHT22;15886;49.170;14.572;2023-04-01T00:34:32;9.40;99.90
28715;DHT22;15886;49.170;14.572;2023-04-01T00:37:01;9.30;99.90
28715;DHT22;15886;49.170;14.572;2023-04-01T00:39:31;9.30;99.90
28715;DHT22;15886;49.170;14.572;2023-04-01T00:42:00;9.30;99.90
28715;DHT22;15886;49.170;14.572;2023-04-01T00:44:33;9.30;99.90
28715;DHT22;15886;49.170;14.572;2023-04-01T00:47:02;9.40;99.90
28715;DHT22;15886;49.170;14.572;2023-04-01T00:49:33;9.40;99.90
28715;DHT22;15886;49.170;14.572;2023-04-01T00:52:04;9.40;99.90
28715;DHT22;15886;49.170;14.572;2023-04-01T00:54:34;9.30;99.90
28715;DHT22;15886;49.170;14.572;2023-04-01T00:57:28;9.30;99.90
28715;DHT22;15886;49.170;14.572;2023-04-01T00:59:57;9.30;99.90
28715;DHT22;15886;49.170;14.572;2023-04-01T01:02:27;9.30;99.90
28715;DHT22;15886;49.170;14.572;2023-04-01T01:04:55;9.30;99.90
28715;DHT22;15886;49.170;14.572;2023-04-01T01:07:47;9.40;99.90
28715;DHT22;15886;49.170;14.572;2023-04-01T01:10:31;9.40;99.90
28715;DHT22;15886;49.170;14.572;2023-04-01T01:13:10;9.30;99.90
28715;DHT22;15886;49.170;14.572;2023-04-01T01:15:49;9.30;99.90
28715;DHT22;15886;49.170;14.572;2023-04-01T01:27:09;9.30;99.90
28715;DHT22;15886;49.170;14.572;2023-04-01T01:35:38;9.20;99.90
28715;DHT22;15886;49.170;14.572;2023-04-01T01:38:17;9.30;99.90
28715;DHT22;15886;49.170;14.572;2023-04-01T01:40:56;9.30;99.90
28715;DHT22;15886;49.170;14.572;2023-04-01T01:43:31;9.30;99.90
28715;DHT22;15886;49.170;14.572;2023-04-01T01:46:05;9.30;99.90
28715;DHT22;15886;49.170;14.572;2023-04-01T01:48:38;9.30;99.90
28715;DHT22;15886;49.170;14.572;2023-04-01T01:51:08;9.30;99.90
28715;DHT22;15886;49.170;14.572;2023-04-01T01:54:01;9.20;99.90
28715;DHT22;15886;49.170;14.572;2023-04-01T01:59:11;9.30;99.90
28715;DHT22;15886;49.170;14.572;2023-04-01T02:01:42;9.30;99.90
28715;DHT22;15886;49.170;14.572;2023-04-01T02:04:15;9.30;99.90
28715;DHT22;15886;49.170;14.572;2023-04-01T02:06:59;9.30;99.90
28715;DHT22;15886;49.170;14.572;2023-04-01T02:09:30;9.40;99.90
28715;DHT22;15886;49.170;14.572;2023-04-01T02:12:02;9.30;99.90
28715;DHT22;15886;49.170;14.572;2023-04-01T02:14:45;9.30;99.90
28715;DHT22;15886;49.170;14.572;2023-04-01T02:17:23;9.30;99.90
28715;DHT22;15886;49.170;14.572;2023-04-01T02:20:14;9.30;99.90
28715;DHT22;15886;49.170;14.572;2023-04-01T02:22:48;9.30;99.90
28715;DHT22;15886;49.170;14.572;2023-04-01T02:25:27;9.40;99.90
28715;DHT22;15886;49.170;14.572;2023-04-01T02:27:58;9.40;99.90
28715;DHT22;15886;49.170;14.572;2023-04-01T02:30:29;9.30;99.90
28715;DHT22;15886;49.170;14.572;2023-04-01T02:32:58;9.40;99.90
28715;DHT22;15886;49.170;14.572;2023-04-01T02:35:27;9.40;99.90
28715;DHT22;15886;49.170;14.572;2023-04-01T02:37:55;9.40;99.90
28715;DHT22;15886;49.170;14.572;2023-04-01T02:40:23;9.40;99.90
28715;DHT22;15886;49.170;14.572;2023-04-01T02:42:53;9.40;99.90
28715;DHT22;15886;49.170;14.572;2023-04-01T02:45:21;9.40;99.90
28715;DHT22;15886;49.170;14.572;2023-04-01T02:47:52;9.50;99.90
28715;DHT22;15886;49.170;14.572;2023-04-01T02:50:21;9.40;99.90
28715;DHT22;15886;49.170;14.572;2023-04-01T02:52:49;9.40;99.90
28715;DHT22;15886;49.170;14.572;2023-04-01T02:55:17;9.40;99.90
28715;DHT22;15886;49.170;14.572;2023-04-01T02:57:47;9.40;99.90
28715;DHT22;15886;49.170;14.572;2023-04-01T03:00:15;9.40;99.90
28715;DHT22;15886;49.170;14.572;2023-04-01T03:02:44;9.40;99.90
28715;DHT22;15886;49.170;14.572;2023-04-01T03:05:15;9.40;99.90
28715;DHT22;15886;49.170;14.572;2023-04-01T03:07:43;9.40;99.90
28715;DHT22;15886;49.170;14.572;2023-04-01T03:10:14;9.40;99.90
28715;DHT22;15886;49.170;14.572;2023-04-01T03:12:43;9.40;99.90
28715;DHT22;15886;49.170;14.572;2023-04-01T03:15:12;9.40;99.90
28715;DHT22;15886;49.170;14.572;2023-04-01T03:17:42;9.40;99.90
28715;DHT22;15886;49.170;14.572;2023-04-01T03:20:11;9.40;99.90
28715;DHT22;15886;49.170;14.572;2023-04-01T03:22:39;9.40;99.90
28715;DHT22;15886;49.170;14.572;2023-04-01T03:25:10;9.50;99.90
28715;DHT22;15886;49.170;14.572;2023-04-01T03:27:38;9.50;99.90
28715;DHT22;15886;49.170;14.572;2023-04-01T03:30:08;9.50;99.90
28715;DHT22;15886;49.170;14.572;2023-04-01T03:32:45;9.50;99.90
28715;DHT22;15886;49.170;14.572;2023-04-01T03:35:14;9.50;99.90
28715;DHT22;15886;49.170;14.572;2023-04-01T03:37:43;9.50;99.90
28715;DHT22;15886;49.170;14.572;2023-04-01T03:40:12;9.50;99.90
28715;DHT22;15886;49.170;14.572;2023-04-01T03:42:40;9.50;99.90
28715;DHT22;15886;49.170;14.572;2023-04-01T03:45:09;9.50;99.90
28715;DHT22;15886;49.170;14.572;2023-04-01T03:47:43;9.40;99.90
28715;DHT22;15886;49.170;14.572;2023-04-01T03:50:15;9.40;99.90
28715;DHT22;15886;49.170;14.572;2023-04-01T03:52:43;9.40;99.90
28715;DHT22;15886;49.170;14.572;2023-04-01T03:55:12;9.40;99.90
28715;DHT22;15886;49.170;14.572;2023-04-01T03:57:40;9.40;99.90
28715;DHT22;15886;49.170;14.572;2023-04-01T04:00:16;9.40;99.90
28715;DHT22;15886;49.170;14.572;2023-04-01T04:02:49;9.40;99.90
28715;DHT22;15886;49.170;14.572;2023-04-01T04:05:26;9.40;99.90
28715;DHT22;15886;49.170;14.572;2023-04-01T04:07:54;9.30;99.90
28715;DHT22;15886;49.170;14.572;2023-04-01T04:10:22;9.40;99.90
28715;DHT22;15886;49.170;14.572;2023-04-01T04:12:52;9.40;99.90
28715;DHT22;15886;49.170;14.572;2023-04-01T04:15:23;9.40;99.90
28715;DHT22;15886;49.170;14.572;2023-04-01T04:17:51;9.50;99.90
28715;DHT22;15886;49.170;14.572;2023-04-01T04:20:27;9.40;99.90
28715;DHT22;15886;49.170;14.572;2023-04-01T04:22:54;9.40;99.90
28715;DHT22;15886;49.170;14.572;2023-04-01T04:25:22;9.40;99.90
28715;DHT22;15886;49.170;14.572;2023-04-01T04:27:51;9.40;99.90
28715;DHT22;15886;49.170;14.572;2023-04-01T04:30:19;9.40;99.90
28715;DHT22;15886;49.170;14.572;2023-04-01T04:32:48;9.40;99.90
28715;DHT22;15886;49.170;14.572;2023-04-01T04:35:16;9.40;99.90
28715;DHT22;15886;49.170;14.572;2023-04-01T04:37:44;9.40;99.90
28715;DHT22;15886;49.170;14.572;2023-04-01T04:40:13;9.40;99.90
28715;DHT22;15886;49.170;14.572;2023-04-01T04:42:42;9.40;99.90
28715;DHT22;15886;49.170;14.572;2023-04-01T04:45:25;9.40;99.90
28715;DHT22;15886;49.170;14.572;2023-04-01T04:47:56;9.40;99.90
28715;DHT22;15886;49.170;14.572;2023-04-01T04:50:25;9.40;99.90
28715;DHT22;15886;49.170;14.572;2023-04-01T04:52:53;9.30;99.90
28715;DHT22;15886;49.170;14.572;2023-04-01T04:55:21;9.30;99.90
28715;DHT22;15886;49.170;14.572;2023-04-01T04:58:04;9.30;99.90
28715;DHT22;15886;49.170;14.572;2023-04-01T05:00:32;9.30;99.90
28715;DHT22;15886;49.170;14.572;2023-04-01T05:03:03;9.30;99.90
28715;DHT22;15886;49.170;14.572;2023-04-01T05:05:32;9.30;99.90
28715;DHT22;15886;49.170;14.572;2023-04-01T05:08:03;9.30;99.90
28715;DHT22;15886;49.170;14.572;2023-04-01T05:10:32;9.40;99.90
28715;DHT22;15886;49.170;14.572;2023-04-01T05:13:00;9.40;99.90
28715;DHT22;15886;49.170;14.572;2023-04-01T05:15:28;9.40;99.90
28715;DHT22;15886;49.170;14.572;2023-04-01T05:18:01;9.30;99.90
28715;DHT22;15886;49.170;14.572;2023-04-01T05:20:30;9.30;99.90
28715;DHT22;15886;49.170;14.572;2023-04-01T05:22:59;9.40;99.90
28715;DHT22;15886;49.170;14.572;2023-04-01T05:25:37;9.30;99.90
28715;DHT22;15886;49.170;14.572;2023-04-01T05:28:05;9.30;99.90
28715;DHT22;15886;49.170;14.572;2023-04-01T05:30:42;9.40;99.90
28715;DHT22;15886;49.170;14.572;2023-04-01T05:33:44;9.40;99.90
28715;DHT22;15886;49.170;14.572;2023-04-01T05:36:35;9.40;99.90
28715;DHT22;15886;49.170;14.572;2023-04-01T05:39:44;9.40;99.90
28715;DHT22;15886;49.170;14.572;2023-04-01T05:42:32;9.40;99.90
28715;DHT22;15886;49.170;14.572;2023-04-01T05:49:51;9.40;99.90
28715;DHT22;15886;49.170;14.572;2023-04-01T05:53:51;9.50;99.90
28715;DHT22;15886;49.170;14.572;2023-04-01T05:56:39;9.50;99.90
28715;DHT22;15886;49.170;14.572;2023-04-01T05:59:49;9.60;99.90
28715;DHT22;15886;49.170;14.572;2023-04-01T06:02:33;9.70;99.90
28715;DHT22;15886;49.170;14.572;2023-04-01T06:05:25;9.60;99.90
28715;DHT22;15886;49.170;14.572;2023-04-01T06:11:35;9.60;99.90
28715;DHT22;15886;49.170;14.572;2023-04-01T06:39:59;9.80;99.90
28715;DHT22;15886;49.170;14.572;2023-04-01T06:43:33;9.80;99.90
28715;DHT22;15886;49.170;14.572;2023-04-01T06:58:22;10.10;99.90
28715;DHT22;15886;49.170;14.572;2023-04-01T08:09:57;11.40;99.90
28715;DHT22;15886;49.170;14.572;2023-04-01T09:06:32;11.70;99.90
28715;DHT22;15886;49.170;14.572;2023-04-01T09:28:45;11.60;99.90
28715;DHT22;15886;49.170;14.572;2023-04-01T09:34:30;11.70;99.90
28715;DHT22;15886;49.170;14.572;2023-04-01T09:37:19;11.80;99.90
28715;DHT22;15886;49.170;14.572;2023-04-01T09:43:25;11.80;99.90
28715;DHT22;15886;49.170;14.572;2023-04-01T09:52:07;11.80;99.90
28715;DHT22;15886;49.170;14.572;2023-04-01T10:04:08;12.20;99.90
28715;DHT22;15886;49.170;14.572;2023-04-01T11:40:36;12.40;98.20
28715;DHT22;15886;49.170;14.572;2023-04-01T11:44:03;12.40;99.00
28715;DHT22;15886;49.170;14.572;2023-04-01T11:58:04;12.60;98.80
28715;DHT22;15886;49.170;14.572;2023-04-01T12:15:48;12.70;98.40
28715;DHT22;15886;49.170;14.572;2023-04-01T13:12:19;13.30;99.90
28715;DHT22;15886;49.170;14.572;2023-04-01T13:19:03;13.10;99.90
28715;DHT22;15886;49.170;14.572;2023-04-01T13:22:07;13.20;99.90
28715;DHT22;15886;49.170;14.572;2023-04-01T13:28:40;13.50;99.90
28715;DHT22;15886;49.170;14.572;2023-04-01T13:35:30;13.50;99.90
28715;DHT22;15886;49.170;14.572;2023-04-01T15:02:50;13.00;99.90
28715;DHT22;15886;49.170;14.572;2023-04-01T15:56:52;12.10;99.90
28715;DHT22;15886;49.170;14.572;2023-04-01T16:00:40;12.00;99.90
28715;DHT22;15886;49.170;14.572;2023-04-01T16:03:35;11.90;99.90
28715;DHT22;15886;49.170;14.572;2023-04-01T16:10:07;11.80;99.90
28715;DHT22;15886;49.170;14.572;2023-04-01T16:54:01;11.30;99.90
28715;DHT22;15886;49.170;14.572;2023-04-01T17:34:42;11.10;99.90
28715;DHT22;15886;49.170;14.572;2023-04-01T17:53:43;11.10;99.90
28715;DHT22;15886;49.170;14.572;2023-04-01T19:32:04;9.80;99.90
28715;DHT22;15886;49.170;14.572;2023-04-01T19:35:42;9.70;99.90
28715;DHT22;15886;49.170;14.572;2023-04-01T19:39:17;9.70;99.90
28715;DHT22;15886;49.170;14.572;2023-04-01T19:54:53;9.70;99.90
28715;DHT22;15886;49.170;14.572;2023-04-01T20:04:49;9.60;99.90
28715;DHT22;15886;49.170;14.572;2023-04-01T22:04:35;9.70;99.90
28715;DHT22;15886;49.170;14.572;2023-04-01T22:07:20;9.70;99.90
28715;DHT22;15886;49.170;14.572;2023-04-01T22:23:27;9.60;99.90
28715;DHT22;15886;49.170;14.572;2023-04-01T23:39:40;9.30;99.90
28715;DHT22;15886;49.170;14.572;2023-04-01T23:42:24;9.20;99.90
28715;DHT22;15886;49.170;14.572;2023-04-01T23:48:11;9.20;99.90
